Dubrovnik, Croatia

2:04 AM CEST on September 03, 2014 (GMT +0200)
IDALMACI24 | Change Station
CLOSE
Current Station
Personal Weather Station
Location: Mandaljena, ZUPA DUBROVACKA
Elevation: 118 ft
Nearby Weather Stations

Elev 118 ft 42.64 °N, 18.19 °E | Updated 24 seconds ago

Scattered Clouds
Scattered Clouds
69.0 °F
Feels Like 69.0 °F
N
0.0
Wind Variable Wind from East
Gusts 0.0 mph

Today
High -- | Low -- °F
--% Chance of Precip.
Yesterday
High -- | Low -- °F
Precip. -- in
6:13 AM 7:18 PM
First Quarter, 56% visible
Pressure 29.65 in
Visibility 6.2 miles
Clouds Scattered Clouds 4000 ft
Dew Point 62 °F
Humidity 79%
Rainfall 0.00 in
Snow Depth Not available.
UV 0 out of 12
Pollen Not available.
Air Quality Not available.
Flu Activity Not available.
METAR LYTV 030000Z VRB02KT 9999 SCT040 19/18 Q1004

More Conditions Fewer Conditions

Pressure 29.65 in
Visibility 6.2 miles
Clouds Scattered Clouds 4000 ft
Dew Point 62 °F
Humidity 79%
Rainfall 0.00 in
Snow Depth Not available.
UV 0 out of 12
Pollen Not available.
Air Quality Not available.
Flu Activity Not available.
METAR LYTV 030000Z VRB02KT 9999 SCT040 19/18 Q1004

More Conditions Fewer Conditions

10-Day Weather Forecast

Almanac

Astronomy

Sep. 03, 2014 Rise Set
Actual Time 6:13 AM CEST 7:18 PM CEST
Civil Twilight 5:44 AM CEST 7:47 PM CEST
Nautical Twilight 5:10 AM CEST 8:21 PM CEST
Astronomical Twilight 4:34 AM CEST 8:57 PM CEST
Moon 2:47 PM CEST No Moon Set
Length of Visible Light 14h 02m
Length of Day
13h 04m
Tomorrow will be 2m 47s shorter.
First Quarter, 56% of the Moon is Illuminated
Sep 2
First Quarter
Sep 8
Full
Sep 15
Last Quarter
Sep 24
New
Oct 1
First Quarter

Yesterday's Extremes

Country Highs Country Lows

Community

WunderPhotos

Upload Photos

1,749,803 photos uploaded!

Nearby

Snow Depth

Not available.

Earthquake Activity

City Distance Mag. Time & Date
No recent earthquake activity has been reported nearby.
Minimum magnitude displayed is 2.5.

Coastal Water Temperatures

Place Temperature
No Stations Reporting

Nearby Weather Stations